Time;durP1;ratioP1;P1;durP2;ratioP2;P2;SDS_P1;SDS_P2;PMS_P1;PMS_P2;Temp;Humidity;BMP_temperature;BMP_pressure;BME280_temperature;BME280_humidity;BME280_pressure;Samples;Min_cycle;Max_cycle;Signal;HPM_P1;HPM_P2
2022/12/01 00:00:44;;;;;;;67.57;31.52;;;;;;;;;;4995789;28;20053;-77
2022/12/01 00:03:10;;;;;;;73.65;30.85;;;;;;;;;;4995369;28;20022;-77
2022/12/01 00:05:36;;;;;;;69.50;31.33;;;;;;;;;;4995459;28;20025;-76
2022/12/01 00:08:03;;;;;;;64.25;30.33;;;;;;;;;;5013005;28;20554;-76
2022/12/01 00:10:32;;;;;;;64.53;28.75;;;;;;;;;;4995425;28;20417;-77
2022/12/01 00:12:59;;;;;;;63.78;28.98;;;;;;;;;;4995350;28;20377;-77
2022/12/01 00:15:34;;;;;;;72.18;32.35;;;;;;;;;;4995245;28;20022;-77
2022/12/01 00:18:00;;;;;;;71.57;33.20;;;;;;;;;;4995099;28;20116;-77
2022/12/01 00:20:27;;;;;;;70.65;30.77;;;;;;;;;;5012981;28;20472;-77
2022/12/01 00:22:56;;;;;;;63.45;29.02;;;;;;;;;;5012407;28;20031;-77
2022/12/01 00:25:22;;;;;;;68.70;30.35;;;;;;;;;;5012623;28;20029;-76
2022/12/01 00:27:48;;;;;;;66.50;30.75;;;;;;;;;;5012395;28;20026;-78
2022/12/01 00:30:15;;;;;;;59.97;27.08;;;;;;;;;;5012521;28;20040;-77
2022/12/01 00:32:41;;;;;;;67.20;31.48;;;;;;;;;;5012314;28;20063;-77
2022/12/01 00:35:07;;;;;;;67.95;31.27;;;;;;;;;;4994969;28;20017;-77
2022/12/01 00:37:34;;;;;;;69.80;30.10;;;;;;;;;;5012390;28;20028;-76
2022/12/01 00:40:00;;;;;;;65.78;30.88;;;;;;;;;;4988917;28;20026;-78
2022/12/01 00:42:27;;;;;;;75.20;31.40;;;;;;;;;;4975171;28;20022;-77
2022/12/01 00:44:53;;;;;;;68.90;32.47;;;;;;;;;;4974929;28;20131;-77
2022/12/01 00:47:19;;;;;;;70.07;31.60;;;;;;;;;;4992724;28;20451;-77
2022/12/01 00:49:45;;;;;;;68.22;32.13;;;;;;;;;;4992857;28;20097;-77
2022/12/01 00:52:18;;;;;;;69.13;30.15;;;;;;;;;;4992725;28;20113;-77
2022/12/01 00:54:44;;;;;;;70.05;31.40;;;;;;;;;;4975001;28;20050;-78
2022/12/01 00:57:10;;;;;;;72.13;31.77;;;;;;;;;;4974981;28;20069;-75
2022/12/01 00:59:36;;;;;;;72.95;30.30;;;;;;;;;;4992946;28;20030;-78
2022/12/01 01:02:04;;;;;;;68.85;31.13;;;;;;;;;;4975224;28;20030;-79
2022/12/01 01:04:30;;;;;;;67.60;31.23;;;;;;;;;;4992936;28;20041;-77
2022/12/01 01:06:56;;;;;;;71.50;32.60;;;;;;;;;;4992877;28;20394;-77
2022/12/01 01:09:22;;;;;;;72.93;32.38;;;;;;;;;;4992037;28;20026;-77
2022/12/01 01:11:48;;;;;;;66.82;29.13;;;;;;;;;;4992319;28;20050;-78
2022/12/01 01:14:14;;;;;;;64.20;29.83;;;;;;;;;;4992324;28;20023;-77
2022/12/01 01:16:40;;;;;;;64.60;29.70;;;;;;;;;;4975276;28;20053;-73
2022/12/01 01:19:06;;;;;;;69.05;29.90;;;;;;;;;;4992544;28;20030;-77
2022/12/01 01:21:32;;;;;;;63.65;29.23;;;;;;;;;;4993084;28;20034;-77
2022/12/01 01:23:59;;;;;;;62.67;30.13;;;;;;;;;;4992867;28;20053;-77
2022/12/01 01:26:26;;;;;;;65.95;27.42;;;;;;;;;;4992469;28;20484;-77
2022/12/01 01:28:53;;;;;;;66.13;28.02;;;;;;;;;;4974665;28;20018;-77
2022/12/01 01:31:20;;;;;;;65.18;31.75;;;;;;;;;;4992865;28;20098;-77
2022/12/01 01:33:46;;;;;;;67.13;28.58;;;;;;;;;;4992473;28;20023;-78
2022/12/01 01:36:13;;;;;;;65.70;29.08;;;;;;;;;;4995505;28;20061;-77
2022/12/01 01:38:39;;;;;;;66.57;30.17;;;;;;;;;;4994585;28;20097;-78
2022/12/01 01:41:06;;;;;;;63.05;28.88;;;;;;;;;;4992355;28;20472;-77
2022/12/01 01:43:41;;;;;;;60.53;27.92;;;;;;;;;;4997081;28;20120;-77
2022/12/01 01:46:10;;;;;;;67.97;30.90;;;;;;;;;;4996994;28;20128;-77
2022/12/01 01:48:40;;;;;;;79.15;32.72;;;;;;;;;;4998663;28;20022;-78
2022/12/01 01:51:07;;;;;;;67.17;29.90;;;;;;;;;;5000715;28;20018;-78
2022/12/01 01:53:33;;;;;;;75.40;31.63;;;;;;;;;;5003516;28;20491;-78
2022/12/01 01:56:00;;;;;;;65.05;29.13;;;;;;;;;;5003535;28;20476;-77
2022/12/01 01:58:26;;;;;;;70.38;29.80;;;;;;;;;;5000907;28;20083;-77
2022/12/01 02:00:55;;;;;;;69.47;29.52;;;;;;;;;;4999838;28;20014;-78
2022/12/01 02:03:22;;;;;;;64.55;29.15;;;;;;;;;;5018830;28;20090;-77
2022/12/01 02:05:48;;;;;;;66.03;27.92;;;;;;;;;;5002448;28;20030;-77
2022/12/01 02:08:14;;;;;;;69.05;28.85;;;;;;;;;;5001495;28;20117;-78
2022/12/01 02:10:43;;;;;;;57.63;28.05;;;;;;;;;;5019363;28;20030;-78
2022/12/01 02:13:18;;;;;;;67.82;29.90;;;;;;;;;;5004790;28;20022;-78
2022/12/01 02:15:44;;;;;;;67.07;29.42;;;;;;;;;;5017330;28;20026;-77
2022/12/01 02:18:10;;;;;;;71.05;29.67;;;;;;;;;;5015224;28;20080;-74
2022/12/01 02:20:45;;;;;;;71.22;29.58;;;;;;;;;;5015521;28;20030;-77
2022/12/01 02:23:11;;;;;;;72.68;29.50;;;;;;;;;;5015623;28;20029;-78
2022/12/01 02:25:56;;;;;;;70.55;30.48;;;;;;;;;;4997876;28;20032;-77
2022/12/01 02:28:55;;;;;;;70.32;29.50;;;;;;;;;;4997383;28;20044;-76
2022/12/01 02:31:42;;;;;;;75.03;29.45;;;;;;;;;;5015209;28;20378;-77
2022/12/01 02:34:21;;;;;;;75.20;29.80;;;;;;;;;;5002387;28;20121;-75
2022/12/01 02:36:57;;;;;;;72.13;29.42;;;;;;;;;;5022092;28;20033;-75
2022/12/01 02:39:29;;;;;;;77.20;30.60;;;;;;;;;;5004657;28;20030;-76
2022/12/01 02:42:47;;;;;;;70.97;30.65;;;;;;;;;;4979146;28;20085;-76
2022/12/01 02:45:01;;;;;;;77.05;30.25;;;;;;;;;;4994794;28;20026;-77
2022/12/01 02:47:27;;;;;;;83.25;32.63;;;;;;;;;;4976963;28;20027;-77
2022/12/01 02:49:54;;;;;;;76.93;30.42;;;;;;;;;;4995294;28;20030;-77
2022/12/01 02:52:21;;;;;;;78.40;30.23;;;;;;;;;;4978702;28;20029;-77
2022/12/01 02:54:47;;;;;;;81.30;29.73;;;;;;;;;;4977682;28;20030;-77
2022/12/01 02:57:14;;;;;;;74.15;28.73;;;;;;;;;;4994735;28;20030;-77
2022/12/01 02:59:42;;;;;;;70.30;29.30;;;;;;;;;;4977016;28;20481;-77
2022/12/01 03:02:14;;;;;;;75.18;28.75;;;;;;;;;;4977238;28;20034;-77
2022/12/01 03:04:56;;;;;;;61.78;27.23;;;;;;;;;;4994907;28;20109;-78
2022/12/01 03:07:23;;;;;;;66.30;28.73;;;;;;;;;;4994366;28;20030;-77
2022/12/01 03:09:49;;;;;;;67.47;28.38;;;;;;;;;;4976931;28;20038;-77
2022/12/01 03:12:34;;;;;;;70.22;28.73;;;;;;;;;;4976817;28;20053;-77
2022/12/01 03:15:07;;;;;;;73.95;29.45;;;;;;;;;;4995346;28;20034;-77
2022/12/01 03:18:03;;;;;;;76.65;29.45;;;;;;;;;;4994757;28;20488;-76
2022/12/01 03:20:46;;;;;;;69.05;28.85;;;;;;;;;;4960344;28;20064;-78
2022/12/01 03:23:14;;;;;;;73.22;28.92;;;;;;;;;;4977070;28;20085;-77
2022/12/01 03:25:46;;;;;;;69.28;29.40;;;;;;;;;;4977377;28;20121;-77
2022/12/01 03:28:15;;;;;;;71.40;28.48;;;;;;;;;;4995972;28;20030;-77
2022/12/01 03:30:42;;;;;;;74.03;29.52;;;;;;;;;;4977740;28;20526;-78
2022/12/01 03:33:13;;;;;;;78.88;29.95;;;;;;;;;;4994561;28;20037;-78
2022/12/01 03:35:43;;;;;;;78.32;29.98;;;;;;;;;;4977099;28;20031;-78
2022/12/01 03:38:17;;;;;;;53.92;22.05;;;;;;;;;;4993894;28;20489;-78
2022/12/01 03:40:44;;;;;;;75.18;29.65;;;;;;;;;;5006344;28;20101;-78
2022/12/01 03:43:11;;;;;;;70.25;28.02;;;;;;;;;;5013524;28;20484;-78
2022/12/01 03:45:48;;;;;;;77.43;27.88;;;;;;;;;;5013831;28;20037;-78
2022/12/01 03:48:14;;;;;;;76.80;29.73;;;;;;;;;;5013126;28;20030;-78
2022/12/01 03:51:02;;;;;;;76.40;30.40;;;;;;;;;;4995713;28;20029;-77
2022/12/01 03:53:31;;;;;;;77.25;29.02;;;;;;;;;;4995799;28;20523;-78
2022/12/01 03:56:00;;;;;;;76.50;27.67;;;;;;;;;;5013456;28;20036;-77
2022/12/01 03:58:35;;;;;;;79.82;29.48;;;;;;;;;;5012790;28;20033;-78
2022/12/01 04:01:02;;;;;;;79.85;29.08;;;;;;;;;;5013518;28;20026;-77
2022/12/01 04:03:30;;;;;;;81.38;32.15;;;;;;;;;;5013433;28;20022;-77
2022/12/01 04:05:56;;;;;;;95.07;31.20;;;;;;;;;;4995148;28;20030;-78
2022/12/01 04:08:23;;;;;;;89.93;32.70;;;;;;;;;;4995087;28;20022;-77
2022/12/01 04:10:49;;;;;;;96.10;31.08;;;;;;;;;;4994965;28;20056;-77
2022/12/01 04:13:21;;;;;;;93.93;32.20;;;;;;;;;;4995150;28;20388;-78
2022/12/01 04:15:49;;;;;;;93.97;32.63;;;;;;;;;;5013291;28;20026;-77
2022/12/01 04:18:15;;;;;;;94.90;30.42;;;;;;;;;;4995146;28;20515;-79
2022/12/01 04:20:42;;;;;;;104.90;32.72;;;;;;;;;;4995922;28;20113;-78
2022/12/01 04:23:08;;;;;;;99.68;33.28;;;;;;;;;;4995791;28;20034;-77
2022/12/01 04:25:34;;;;;;;100.35;33.97;;;;;;;;;;5014543;28;20117;-77
2022/12/01 04:28:00;;;;;;;96.25;31.20;;;;;;;;;;5014501;28;20112;-76
2022/12/01 04:30:26;;;;;;;100.63;33.38;;;;;;;;;;5002457;28;20030;-77
2022/12/01 04:32:52;;;;;;;110.50;32.58;;;;;;;;;;5023259;28;20029;-77
2022/12/01 04:35:18;;;;;;;101.38;32.20;;;;;;;;;;5020625;28;20033;-78
2022/12/01 04:37:44;;;;;;;99.88;32.17;;;;;;;;;;5022777;28;20036;-79
2022/12/01 04:40:10;;;;;;;91.68;30.73;;;;;;;;;;5008229;28;20032;-76
2022/12/01 04:42:37;;;;;;;100.20;32.10;;;;;;;;;;5012144;28;20034;-77
2022/12/01 04:45:03;;;;;;;100.53;31.92;;;;;;;;;;4992208;28;20094;-75
2022/12/01 04:47:31;;;;;;;96.20;30.63;;;;;;;;;;5013230;28;20022;-77
2022/12/01 04:50:00;;;;;;;106.78;33.33;;;;;;;;;;4984201;28;20030;-77
2022/12/01 04:52:26;;;;;;;114.22;33.90;;;;;;;;;;4992741;28;20061;-75
2022/12/01 04:54:55;;;;;;;112.85;32.95;;;;;;;;;;4975134;28;20551;-76
2022/12/01 04:57:21;;;;;;;108.43;34.70;;;;;;;;;;4992507;28;20037;-76
2022/12/01 04:59:47;;;;;;;127.50;37.10;;;;;;;;;;4975087;28;20026;-76
2022/12/01 05:02:13;;;;;;;114.75;34.60;;;;;;;;;;4975216;28;20037;-77
2022/12/01 05:04:40;;;;;;;106.05;33.85;;;;;;;;;;4992281;28;20030;-76
2022/12/01 05:07:06;;;;;;;110.05;34.97;;;;;;;;;;4992406;28;20034;-77
2022/12/01 05:09:32;;;;;;;109.00;36.50;;;;;;;;;;4992096;28;20054;-79
2022/12/01 05:11:58;;;;;;;123.75;37.90;;;;;;;;;;4992402;28;20496;-79
2022/12/01 05:14:24;;;;;;;118.57;36.53;;;;;;;;;;4992446;28;20025;-77
2022/12/01 05:16:50;;;;;;;117.43;36.60;;;;;;;;;;4992309;28;20027;-77
2022/12/01 05:22:01;;;;;;;109.95;37.33;;;;;;;;;;4992685;28;20097;-77
2022/12/01 05:24:27;;;;;;;104.35;34.08;;;;;;;;;;4975192;28;20027;-78
2022/12/01 05:26:53;;;;;;;111.38;36.95;;;;;;;;;;4974928;28;20401;-78
2022/12/01 05:29:19;;;;;;;133.48;37.28;;;;;;;;;;4992003;28;20022;-77
2022/12/01 05:31:46;;;;;;;122.90;37.10;;;;;;;;;;4975113;28;20409;-77
2022/12/01 05:34:12;;;;;;;116.82;37.08;;;;;;;;;;4992431;28;20034;-77
2022/12/01 05:36:38;;;;;;;119.63;34.75;;;;;;;;;;4992378;28;20026;-77
2022/12/01 05:39:04;;;;;;;115.40;36.60;;;;;;;;;;4992356;28;20404;-78
2022/12/01 05:41:30;;;;;;;103.60;32.67;;;;;;;;;;4974698;28;20504;-77
2022/12/01 05:43:56;;;;;;;119.10;37.20;;;;;;;;;;4975250;28;20026;-78
2022/12/01 05:46:22;;;;;;;105.13;32.00;;;;;;;;;;4992668;28;20026;-77
2022/12/01 05:48:48;;;;;;;116.50;35.92;;;;;;;;;;4992332;28;20025;-79
2022/12/01 05:51:15;;;;;;;126.22;37.22;;;;;;;;;;4992279;28;20169;-78
2022/12/01 05:53:42;;;;;;;111.40;34.60;;;;;;;;;;4992637;28;20386;-78
2022/12/01 05:56:08;;;;;;;122.72;34.47;;;;;;;;;;4976207;28;20096;-79
2022/12/01 05:58:34;;;;;;;125.65;36.28;;;;;;;;;;4975342;28;20536;-77
2022/12/01 06:01:01;;;;;;;121.55;38.15;;;;;;;;;;4993197;28;20026;-78
2022/12/01 06:03:27;;;;;;;120.32;36.88;;;;;;;;;;4993025;28;20042;-78
2022/12/01 06:05:53;;;;;;;118.25;34.53;;;;;;;;;;4992359;28;20022;-77
2022/12/01 06:08:19;;;;;;;113.32;33.35;;;;;;;;;;4992696;28;20041;-77
2022/12/01 06:10:45;;;;;;;108.63;34.00;;;;;;;;;;4993094;28;20485;-79
2022/12/01 06:13:11;;;;;;;107.13;34.10;;;;;;;;;;4974516;28;20034;-78
2022/12/01 06:15:40;;;;;;;102.95;32.47;;;;;;;;;;4991917;28;20050;-78
2022/12/01 06:18:06;;;;;;;95.18;32.35;;;;;;;;;;4991874;28;20470;-77
2022/12/01 06:20:32;;;;;;;108.07;33.50;;;;;;;;;;4974439;28;20035;-77
2022/12/01 06:22:58;;;;;;;102.65;32.17;;;;;;;;;;4976930;28;20034;-77
2022/12/01 06:25:24;;;;;;;103.65;31.95;;;;;;;;;;4995552;28;20027;-77
2022/12/01 06:27:54;;;;;;;94.18;30.40;;;;;;;;;;4995534;28;20377;-76
2022/12/01 06:30:20;;;;;;;81.10;25.77;;;;;;;;;;4977979;28;20022;-76
2022/12/01 06:32:46;;;;;;;97.03;30.55;;;;;;;;;;4977733;28;20369;-77
2022/12/01 06:35:15;;;;;;;92.47;30.23;;;;;;;;;;4978946;28;20040;-77
2022/12/01 06:37:41;;;;;;;87.30;28.63;;;;;;;;;;4995581;28;20026;-77
2022/12/01 06:40:07;;;;;;;79.78;29.17;;;;;;;;;;5002401;28;20028;-77
2022/12/01 06:42:33;;;;;;;100.32;32.95;;;;;;;;;;4998078;28;20113;-77
2022/12/01 06:44:59;;;;;;;92.07;30.33;;;;;;;;;;5015915;28;20034;-77
2022/12/01 06:47:26;;;;;;;90.45;31.25;;;;;;;;;;4997043;28;20026;-79
2022/12/01 06:49:52;;;;;;;88.53;31.38;;;;;;;;;;5014875;28;20395;-77
2022/12/01 06:52:18;;;;;;;95.72;31.02;;;;;;;;;;5014640;28;20439;-77
2022/12/01 06:54:44;;;;;;;90.78;30.38;;;;;;;;;;4996846;28;20033;-77
2022/12/01 06:57:14;;;;;;;104.90;33.40;;;;;;;;;;4996926;28;20022;-75
2022/12/01 06:59:42;;;;;;;108.30;35.33;;;;;;;;;;5014328;28;20038;-75
2022/12/01 07:02:15;;;;;;;99.70;31.48;;;;;;;;;;4996749;28;20061;-75
2022/12/01 07:04:43;;;;;;;101.07;32.58;;;;;;;;;;4988513;28;20065;-75
2022/12/01 07:07:31;;;;;;;107.88;34.65;;;;;;;;;;4994665;28;20080;-74
2022/12/01 07:09:57;;;;;;;96.03;33.22;;;;;;;;;;4987834;28;20026;-77
2022/12/01 07:12:23;;;;;;;95.03;34.08;;;;;;;;;;5007777;28;20041;-78
2022/12/01 07:14:49;;;;;;;98.93;32.70;;;;;;;;;;5022412;28;20028;-77
2022/12/01 07:17:16;;;;;;;107.60;34.00;;;;;;;;;;5016074;28;20083;-78
2022/12/01 07:19:42;;;;;;;103.10;34.38;;;;;;;;;;4982487;28;20570;-78
2022/12/01 07:22:08;;;;;;;104.53;33.88;;;;;;;;;;5020890;28;20033;-78
2022/12/01 07:24:35;;;;;;;111.22;36.05;;;;;;;;;;4998666;28;20030;-77
2022/12/01 07:27:01;;;;;;;106.38;34.95;;;;;;;;;;5005450;28;20033;-76
2022/12/01 07:29:29;;;;;;;103.60;36.45;;;;;;;;;;5004820;28;20089;-78
2022/12/01 07:31:55;;;;;;;110.65;35.30;;;;;;;;;;5028397;28;20031;-79
2022/12/01 07:34:21;;;;;;;105.57;33.30;;;;;;;;;;4982060;28;20036;-78
2022/12/01 07:36:48;;;;;;;102.38;34.50;;;;;;;;;;5001199;28;20034;-76
2022/12/01 07:39:17;;;;;;;107.90;37.25;;;;;;;;;;5015759;28;20109;-75
2022/12/01 07:41:43;;;;;;;113.35;38.33;;;;;;;;;;5012829;28;20045;-77
2022/12/01 07:44:09;;;;;;;111.85;36.53;;;;;;;;;;4999257;28;20027;-77
2022/12/01 07:46:35;;;;;;;108.93;34.05;;;;;;;;;;4980997;28;20033;-76
2022/12/01 07:49:04;;;;;;;113.05;36.03;;;;;;;;;;5010243;28;20111;-79
2022/12/01 07:51:33;;;;;;;111.07;35.67;;;;;;;;;;4980646;28;20053;-77
2022/12/01 07:54:03;;;;;;;110.72;36.72;;;;;;;;;;5009989;28;20108;-76
2022/12/01 07:56:29;;;;;;;107.32;37.95;;;;;;;;;;4975843;28;20043;-75
2022/12/01 07:58:55;;;;;;;119.82;37.95;;;;;;;;;;5003538;28;20026;-77
2022/12/01 08:01:24;;;;;;;113.03;38.03;;;;;;;;;;4981926;28;20033;-76
2022/12/01 08:03:55;;;;;;;108.13;37.92;;;;;;;;;;5011114;28;20056;-77
2022/12/01 08:06:23;;;;;;;92.70;35.47;;;;;;;;;;5008096;28;20085;-74
2022/12/01 08:08:50;;;;;;;90.72;34.97;;;;;;;;;;4985084;28;20037;-76
2022/12/01 08:11:23;;;;;;;93.63;34.53;;;;;;;;;;4982666;28;20014;-75
2022/12/01 08:13:53;;;;;;;94.75;34.60;;;;;;;;;;4993716;28;20032;-78
2022/12/01 08:16:20;;;;;;;96.90;36.45;;;;;;;;;;4979678;28;20026;-78
2022/12/01 08:18:46;;;;;;;100.75;36.30;;;;;;;;;;4995837;28;20518;-76
2022/12/01 08:21:16;;;;;;;88.38;34.65;;;;;;;;;;5000708;28;20121;-77
2022/12/01 08:23:43;;;;;;;100.17;37.07;;;;;;;;;;5010275;28;20025;-77
2022/12/01 08:26:13;;;;;;;90.03;35.50;;;;;;;;;;4997727;28;20344;-79
2022/12/01 08:29:09;;;;;;;99.75;37.40;;;;;;;;;;5000522;28;20546;-80
2022/12/01 08:31:36;;;;;;;85.32;34.47;;;;;;;;;;4972209;28;20031;-79
2022/12/01 08:34:05;;;;;;;101.80;38.38;;;;;;;;;;5009728;28;20025;-74
2022/12/01 08:36:31;;;;;;;108.05;40.65;;;;;;;;;;4982965;28;20554;-77
2022/12/01 08:38:59;;;;;;;101.32;37.78;;;;;;;;;;4984666;28;20030;-80
2022/12/01 08:41:27;;;;;;;98.32;36.97;;;;;;;;;;5007719;28;20460;-77
2022/12/01 08:43:58;;;;;;;98.00;36.72;;;;;;;;;;4978813;28;20027;-76
2022/12/01 08:46:24;;;;;;;111.93;41.03;;;;;;;;;;4988811;28;20058;-77
2022/12/01 08:48:58;;;;;;;91.93;36.17;;;;;;;;;;4985047;28;20033;-77
2022/12/01 08:51:24;;;;;;;93.25;38.13;;;;;;;;;;4981402;28;20061;-79
2022/12/01 08:53:50;;;;;;;102.00;37.03;;;;;;;;;;4991869;28;20053;-76
2022/12/01 08:56:18;;;;;;;96.53;36.17;;;;;;;;;;4975604;28;20019;-78
2022/12/01 08:58:44;;;;;;;102.35;40.15;;;;;;;;;;4984132;28;20105;-77
2022/12/01 09:01:12;;;;;;;106.50;38.60;;;;;;;;;;4983143;28;20022;-78
2022/12/01 09:03:38;;;;;;;107.03;38.90;;;;;;;;;;5009495;28;20538;-77
2022/12/01 09:06:12;;;;;;;102.28;39.95;;;;;;;;;;4978530;28;20025;-76
2022/12/01 09:08:41;;;;;;;116.97;43.67;;;;;;;;;;4986082;28;20023;-78
2022/12/01 09:11:11;;;;;;;115.50;42.67;;;;;;;;;;4986434;28;20330;-77
2022/12/01 09:13:38;;;;;;;118.97;42.17;;;;;;;;;;4995686;28;20018;-77
2022/12/01 09:16:09;;;;;;;111.78;40.42;;;;;;;;;;4993989;28;20026;-78
2022/12/01 09:18:39;;;;;;;113.90;41.88;;;;;;;;;;4986531;28;20387;-79
2022/12/01 09:21:24;;;;;;;114.00;40.15;;;;;;;;;;5018258;28;20042;-78
2022/12/01 09:23:50;;;;;;;113.78;40.50;;;;;;;;;;4997540;28;20046;-78
2022/12/01 09:26:18;;;;;;;122.68;44.30;;;;;;;;;;4991891;28;20015;-76
2022/12/01 09:28:44;;;;;;;108.50;36.88;;;;;;;;;;5005433;28;20100;-77
2022/12/01 09:31:11;;;;;;;115.47;43.38;;;;;;;;;;4997731;28;20026;-80
2022/12/01 09:33:38;;;;;;;119.57;42.40;;;;;;;;;;4994605;28;20058;-76
2022/12/01 09:36:05;;;;;;;111.63;41.53;;;;;;;;;;4987272;28;20010;-77
2022/12/01 09:39:00;;;;;;;116.47;43.17;;;;;;;;;;4993250;28;20029;-76
2022/12/01 09:41:26;;;;;;;129.60;44.55;;;;;;;;;;4989123;28;20030;-77
2022/12/01 09:44:12;;;;;;;126.30;42.92;;;;;;;;;;4985006;28;20042;-77
2022/12/01 09:46:40;;;;;;;111.20;38.58;;;;;;;;;;4980087;28;20065;-77
2022/12/01 09:49:15;;;;;;;119.30;43.70;;;;;;;;;;4997935;28;20035;-77
2022/12/01 09:51:44;;;;;;;110.32;43.15;;;;;;;;;;4979061;28;20034;-76
2022/12/01 09:54:12;;;;;;;111.43;42.67;;;;;;;;;;4975209;28;20174;-77
2022/12/01 09:56:52;;;;;;;106.53;41.42;;;;;;;;;;4977124;28;20065;-80
2022/12/01 09:59:23;;;;;;;95.32;33.92;;;;;;;;;;4996104;28;20416;-78
2022/12/01 10:01:58;;;;;;;117.35;43.55;;;;;;;;;;4979281;28;20041;-77
2022/12/01 10:04:33;;;;;;;118.88;45.03;;;;;;;;;;4995534;28;20061;-77
2022/12/01 10:07:32;;;;;;;;;;;;;;;;;;;;;
2022/12/01 10:10:07;;;;;;;119.93;44.78;;;;;;;;;;4945369;28;20050;-77
2022/12/01 10:12:41;;;;;;;112.82;44.05;;;;;;;;;;4995943;28;20035;-76
2022/12/01 10:15:07;;;;;;;118.38;42.80;;;;;;;;;;4994992;28;20516;-74
2022/12/01 10:17:43;;;;;;;133.75;44.17;;;;;;;;;;4978512;28;20053;-77
2022/12/01 10:20:18;;;;;;;119.82;43.03;;;;;;;;;;4997873;28;20067;-76
2022/12/01 10:22:59;;;;;;;119.90;42.10;;;;;;;;;;4982805;28;20034;-77
2022/12/01 10:25:43;;;;;;;;;;;;;;;;;;5051358;23;20092;-78
2022/12/01 10:58:14;;;;;;;109.00;42.33;;;;;;;;;;3218619;23;20057;-80
2022/12/01 11:09:40;;;;;;;113.82;41.65;;;;;;;;;;5008209;28;20050;-78
2022/12/01 11:22:11;;;;;;;;;;;;;;;;;;;;;
2022/12/01 11:24:59;;;;;;;104.32;41.08;;;;;;;;;;4986473;28;20047;-78
2022/12/01 11:27:54;;;;;;;101.57;39.45;;;;;;;;;;4982469;28;20023;-78
2022/12/01 11:31:06;;;;;;;;;;;;;;;;;;;;;
2022/12/01 11:37:04;;;;;;;97.68;40.22;;;;;;;;;;4899735;28;20043;-79
2022/12/01 11:39:33;;;;;;;101.60;39.90;;;;;;;;;;4973941;28;20049;-76
2022/12/01 11:42:06;;;;;;;98.43;39.40;;;;;;;;;;4970422;28;20152;-77
2022/12/01 11:44:37;;;;;;;99.53;40.47;;;;;;;;;;4987146;28;20026;-76
2022/12/01 11:47:03;;;;;;;;;;;;;;;;;;4962544;28;20060;-81
2022/12/01 11:49:37;;;;;;;104.40;40.25;;;;;;;;;;4983709;28;19910;-78
2022/12/01 11:52:26;;;;;;;93.03;38.47;;;;;;;;;;4968440;28;20030;-78
2022/12/01 11:55:05;;;;;;;89.10;35.67;;;;;;;;;;4981927;28;20027;-77
2022/12/01 12:03:03;;;;;;;91.53;37.08;;;;;;;;;;4610109;26;20455;-75
2022/12/01 12:05:58;;;;;;;95.13;38.05;;;;;;;;;;4995193;28;20440;-79
2022/12/01 12:08:45;;;;;;;99.03;37.35;;;;;;;;;;4988049;28;20042;-79
2022/12/01 12:11:26;;;;;;;88.45;36.45;;;;;;;;;;5020399;28;20117;-76
2022/12/01 12:13:54;;;;;;;91.28;38.92;;;;;;;;;;5013806;28;20098;-81
2022/12/01 12:16:21;;;;;;;90.43;36.50;;;;;;;;;;5017437;28;20058;-77
2022/12/01 12:19:06;;;;;;;105.65;43.83;;;;;;;;;;5022612;28;20022;-80
2022/12/01 12:21:50;;;;;;;92.05;36.60;;;;;;;;;;4997102;28;20026;-76
2022/12/01 12:24:35;;;;;;;86.80;35.47;;;;;;;;;;5002989;28;20049;-76
2022/12/01 12:27:13;;;;;;;85.65;35.92;;;;;;;;;;4991634;28;20492;-76
2022/12/01 12:29:48;;;;;;;89.70;37.90;;;;;;;;;;4997093;28;20025;-77
2022/12/01 12:32:32;;;;;;;93.07;36.97;;;;;;;;;;5001721;28;20033;-78
2022/12/01 12:35:17;;;;;;;87.63;36.15;;;;;;;;;;5009288;28;20041;-78
2022/12/01 12:38:08;;;;;;;;;;;;;;;;;;;;;
2022/12/01 12:40:46;;;;;;;82.72;33.78;;;;;;;;;;5002126;28;20515;-76
2022/12/01 12:43:32;;;;;;;87.80;37.00;;;;;;;;;;5009172;28;20443;-75
2022/12/01 12:46:03;;;;;;;76.07;34.17;;;;;;;;;;5000864;28;20021;-76
2022/12/01 12:49:05;;;;;;;81.55;34.33;;;;;;;;;;4995105;28;20084;-76
2022/12/01 12:51:37;;;;;;;82.10;34.25;;;;;;;;;;5011875;28;20084;-78
2022/12/01 12:54:09;;;;;;;83.72;34.17;;;;;;;;;;4997495;28;20049;-75
2022/12/01 12:56:38;;;;;;;85.90;37.78;;;;;;;;;;5010249;28;20113;-74
2022/12/01 12:59:09;;;;;;;87.15;37.65;;;;;;;;;;5008752;28;20476;-75
2022/12/01 13:01:35;;;;;;;;;;;;;;;;;;5016151;28;20025;-76
2022/12/01 13:04:17;;;;;;;76.78;33.80;;;;;;;;;;5010146;28;19928;-75
2022/12/01 13:07:05;;;;;;;76.00;33.05;;;;;;;;;;5011033;28;20044;-80
2022/12/01 13:09:31;;;;;;;76.80;32.97;;;;;;;;;;5010922;28;20346;-75
2022/12/01 13:12:05;;;;;;;86.18;36.70;;;;;;;;;;5010894;28;20213;-76
2022/12/01 13:14:54;;;;;;;87.13;36.65;;;;;;;;;;5011936;28;20262;-78
2022/12/01 13:17:25;;;;;;;84.05;36.60;;;;;;;;;;5010608;28;20133;-77
2022/12/01 13:19:51;;;;;;;;;;;;;;;;;;5012995;28;20476;-75
2022/12/01 13:22:18;;;;;;;79.75;33.67;;;;;;;;;;5012767;28;19912;-75
2022/12/01 13:24:44;;;;;;;82.30;33.92;;;;;;;;;;5011516;28;20408;-78
2022/12/01 13:27:11;;;;;;;75.38;33.58;;;;;;;;;;5012184;28;20385;-77
2022/12/01 13:29:47;;;;;;;80.97;34.65;;;;;;;;;;5011176;28;20061;-75
2022/12/01 13:32:34;;;;;;;81.35;33.22;;;;;;;;;;5015986;28;20034;-75
2022/12/01 13:35:03;;;;;;;78.72;34.17;;;;;;;;;;5016437;28;20480;-76
2022/12/01 13:37:31;;;;;;;80.15;34.40;;;;;;;;;;5014434;28;20108;-75
2022/12/01 13:40:07;;;;;;;80.22;34.90;;;;;;;;;;5016532;28;20076;-76
2022/12/01 13:42:34;;;;;;;82.95;34.75;;;;;;;;;;5014989;28;20030;-75
2022/12/01 13:45:06;;;;;;;80.53;34.35;;;;;;;;;;5014879;28;20140;-76
2022/12/01 13:47:47;;;;;;;76.72;32.45;;;;;;;;;;5014311;28;20495;-75
2022/12/01 13:50:38;;;;;;;76.07;34.72;;;;;;;;;;5015214;28;20064;-76
2022/12/01 13:53:10;;;;;;;84.43;35.08;;;;;;;;;;5016088;28;20408;-75
2022/12/01 13:55:55;;;;;;;80.85;36.17;;;;;;;;;;5015485;28;20030;-76
2022/12/01 13:58:44;;;;;;;90.97;35.90;;;;;;;;;;5015186;28;20048;-75
2022/12/01 14:01:19;;;;;;;82.63;33.40;;;;;;;;;;5007742;28;20492;-76
2022/12/01 14:03:51;;;;;;;76.80;33.67;;;;;;;;;;5014507;28;20480;-74
2022/12/01 14:06:24;;;;;;;82.43;35.60;;;;;;;;;;5015758;28;20102;-75
2022/12/01 14:08:51;;;;;;;88.75;37.17;;;;;;;;;;5013996;28;20018;-76
2022/12/01 14:11:21;;;;;;;84.65;35.38;;;;;;;;;;5015665;28;20029;-73
2022/12/01 14:14:07;;;;;;;81.05;35.97;;;;;;;;;;5013752;28;20046;-76
2022/12/01 14:16:47;;;;;;;73.18;31.90;;;;;;;;;;5003292;28;20034;-76
2022/12/01 14:19:31;;;;;;;76.50;32.72;;;;;;;;;;5014072;28;20056;-75
2022/12/01 14:21:59;;;;;;;74.13;32.78;;;;;;;;;;5014494;28;20361;-76
2022/12/01 14:24:33;;;;;;;79.90;37.40;;;;;;;;;;5013858;28;20028;-76
2022/12/01 14:26:59;;;;;;;81.57;33.63;;;;;;;;;;5015676;28;20499;-75
2022/12/01 14:29:29;;;;;;;89.13;37.38;;;;;;;;;;5015186;28;20462;-75
2022/12/01 14:32:05;;;;;;;86.97;34.92;;;;;;;;;;5015618;28;20030;-76
2022/12/01 14:34:33;;;;;;;81.25;33.42;;;;;;;;;;5015848;28;20037;-76
2022/12/01 14:37:05;;;;;;;80.88;33.38;;;;;;;;;;5013905;28;20476;-74
2022/12/01 14:39:33;;;;;;;75.82;34.33;;;;;;;;;;5015293;28;20033;-75
2022/12/01 14:42:02;;;;;;;85.75;34.22;;;;;;;;;;5012679;28;20022;-75
2022/12/01 14:44:34;;;;;;;86.95;35.72;;;;;;;;;;5014109;28;20565;-78
2022/12/01 14:47:09;;;;;;;80.47;33.70;;;;;;;;;;5013690;28;20424;-75
2022/12/01 14:49:51;;;;;;;75.20;32.90;;;;;;;;;;5013671;28;20053;-76
2022/12/01 14:52:30;;;;;;;80.03;34.30;;;;;;;;;;5013462;28;20028;-76
2022/12/01 14:55:00;;;;;;;73.45;33.53;;;;;;;;;;5013420;28;20022;-75
2022/12/01 14:57:34;;;;;;;81.85;33.60;;;;;;;;;;5013404;28;20033;-75
2022/12/01 15:00:09;;;;;;;83.40;34.97;;;;;;;;;;5013067;28;20173;-76
2022/12/01 15:02:39;;;;;;;83.35;34.63;;;;;;;;;;5013001;28;20030;-77
2022/12/01 15:05:26;;;;;;;58.77;24.27;;;;;;;;;;5014201;28;20020;-76
2022/12/01 15:11:32;;;;;;;87.10;36.15;;;;;;;;;;4983317;28;20040;-79
2022/12/01 15:19:46;;;;;;;81.45;35.22;;;;;;;;;;5340162;23;20049;-77
2022/12/01 15:22:17;;;;;;;85.35;35.70;;;;;;;;;;4993183;28;20057;-80
2022/12/01 15:24:48;;;;;;;83.97;35.50;;;;;;;;;;5014427;28;20022;-77
2022/12/01 15:27:34;;;;;;;91.43;36.13;;;;;;;;;;5010341;28;20173;-78
2022/12/01 15:30:03;;;;;;;94.35;38.20;;;;;;;;;;4977927;28;20042;-79
2022/12/01 15:32:36;;;;;;;98.00;36.75;;;;;;;;;;5009927;28;20025;-79
2022/12/01 15:35:06;;;;;;;81.53;35.08;;;;;;;;;;4997512;28;20033;-79
2022/12/01 15:37:53;;;;;;;89.50;36.28;;;;;;;;;;4996952;28;20053;-78
2022/12/01 15:46:18;;;;;;;87.35;36.67;;;;;;;;;;5014770;28;20061;-78
2022/12/01 15:48:45;;;;;;;82.65;35.65;;;;;;;;;;5013308;28;20029;-80
2022/12/01 15:51:11;;;;;;;85.85;35.30;;;;;;;;;;4996852;28;20030;-79
2022/12/01 15:53:42;;;;;;;84.97;36.33;;;;;;;;;;5016037;28;20468;-79
2022/12/01 15:56:09;;;;;;;89.07;35.78;;;;;;;;;;4997876;28;20103;-76